Time,TemperatureF,DewpointF,PressureIn,WindDirection,WindDirectionDegrees,WindSpeedMPH,WindSpeedGustMPH,Humidity,HourlyPrecipIn,Conditions,Clouds,dailyrainin,SoftwareType,DateUTC
2013-07-12 00:02:00,75.0,72.5,30.08,SE,135,0.0,0.0,92,0.00,,,0.04,meteohub,2013-07-12 04:02:00,
2013-07-12 00:12:00,75.0,72.1,30.09,SW,225,0.0,1.0,91,0.00,,,0.00,meteohub,2013-07-12 04:12:00,
2013-07-12 00:22:00,75.0,71.2,30.10,North,0,2.0,9.0,88,0.00,,,0.00,meteohub,2013-07-12 04:22:00,
2013-07-12 00:32:00,72.0,66.9,30.11,North,0,3.0,11.0,84,0.04,,,0.04,meteohub,2013-07-12 04:32:00,
2013-07-12 00:42:00,69.1,66.7,30.10,NW,315,1.0,4.0,92,0.13,,,0.11,meteohub,2013-07-12 04:42:00,
2013-07-12 00:52:00,68.0,66.7,30.09,NNW,337,3.0,5.0,96,0.14,,,0.14,meteohub,2013-07-12 04:52:00,
2013-07-12 01:02:00,66.9,66.4,30.09,NW,315,7.0,7.0,98,0.15,,,0.15,meteohub,2013-07-12 05:02:00,
2013-07-12 01:12:00,66.9,66.6,30.09,NW,315,3.0,7.0,99,0.16,,,0.16,meteohub,2013-07-12 05:12:00,
2013-07-12 01:22:00,66.9,66.6,30.08,NE,45,3.0,6.0,99,0.22,,,0.22,meteohub,2013-07-12 05:22:00,
2013-07-12 01:32:00,66.9,66.6,30.08,NW,315,3.0,7.0,99,0.17,,,0.25,meteohub,2013-07-12 05:32:00,
2013-07-12 01:42:00,66.9,66.6,30.08,NNW,337,2.0,8.0,99,0.17,,,0.30,meteohub,2013-07-12 05:42:00,
2013-07-12 01:52:00,66.0,65.7,30.07,NW,315,2.0,6.0,99,0.18,,,0.32,meteohub,2013-07-12 05:52:00,
2013-07-12 02:02:00,66.0,65.7,30.07,NW,315,4.0,7.0,99,0.18,,,0.33,meteohub,2013-07-12 06:02:00,
2013-07-12 02:12:00,66.9,66.6,30.07,WNW,292,5.0,7.0,99,0.19,,,0.37,meteohub,2013-07-12 06:12:00,
2013-07-12 02:22:00,66.9,66.6,30.07,NW,315,4.0,9.0,99,0.19,,,0.40,meteohub,2013-07-12 06:22:00,
2013-07-12 02:32:00,66.9,66.6,30.07,North,0,4.0,9.0,99,0.18,,,0.44,meteohub,2013-07-12 06:32:00,
2013-07-12 02:42:00,68.0,67.6,30.09,NW,315,1.0,7.0,99,0.15,,,0.46,meteohub,2013-07-12 06:42:00,
2013-07-12 02:52:00,68.0,67.6,30.09,North,0,7.0,8.0,99,0.39,,,0.71,meteohub,2013-07-12 06:52:00,
2013-07-12 03:02:00,66.9,66.6,30.07,NW,315,5.0,12.0,99,0.64,,,0.98,meteohub,2013-07-12 07:02:00,
2013-07-12 03:12:00,66.9,66.6,30.07,NW,315,4.0,12.0,99,0.66,,,1.04,meteohub,2013-07-12 07:12:00,
2013-07-12 03:22:00,66.9,66.6,30.08,NW,315,1.0,11.0,99,0.66,,,1.08,meteohub,2013-07-12 07:22:00,
2013-07-12 03:32:00,66.9,66.6,30.07,NW,315,2.0,12.0,99,0.75,,,1.19,meteohub,2013-07-12 07:32:00,
2013-07-12 03:42:00,66.9,66.6,30.07,NNW,337,1.0,10.0,99,0.78,,,1.25,meteohub,2013-07-12 07:42:00,
2013-07-12 03:52:00,66.9,66.6,30.08,North,0,3.0,11.0,99,0.49,,,1.32,meteohub,2013-07-12 07:52:00,
2013-07-12 04:02:00,66.9,66.6,30.08,North,0,2.0,8.0,99,0.37,,,1.36,meteohub,2013-07-12 08:02:00,
2013-07-12 04:12:00,66.9,66.6,30.09,WNW,292,4.0,9.0,99,0.35,,,1.39,meteohub,2013-07-12 08:12:00,
2013-07-12 04:22:00,66.9,66.6,30.08,NW,315,0.0,9.0,99,0.32,,,1.42,meteohub,2013-07-12 08:22:00,
2013-07-12 04:32:00,66.0,65.7,30.08,North,0,1.0,4.0,99,0.26,,,1.46,meteohub,2013-07-12 08:32:00,
2013-07-12 04:42:00,66.0,65.7,30.07,NW,315,1.0,4.0,99,0.19,,,1.47,meteohub,2013-07-12 08:42:00,
2013-07-12 04:52:00,66.0,65.7,30.07,NW,315,0.0,3.0,99,0.15,,,1.48,meteohub,2013-07-12 08:52:00,
2013-07-12 05:02:00,66.0,65.7,30.08,North,0,2.0,5.0,99,0.12,,,1.48,meteohub,2013-07-12 09:02:00,
2013-07-12 05:12:00,66.0,65.7,30.08,NNW,337,1.0,5.0,99,0.09,,,1.49,meteohub,2013-07-12 09:12:00,
2013-07-12 05:22:00,66.0,65.7,30.09,NNW,337,1.0,5.0,99,0.06,,,1.49,meteohub,2013-07-12 09:22:00,
2013-07-12 05:32:00,66.0,65.7,30.09,NW,315,2.0,6.0,99,0.03,,,1.49,meteohub,2013-07-12 09:32:00,
2013-07-12 05:42:00,66.0,65.7,30.08,NW,315,6.0,7.0,99,0.01,,,1.49,meteohub,2013-07-12 09:42:00,
2013-07-12 05:52:00,66.0,65.7,30.08,NW,315,2.0,6.0,99,0.01,,,1.49,meteohub,2013-07-12 09:52:00,
2013-07-12 06:02:00,66.0,65.7,30.09,NNW,337,3.0,4.0,99,0.02,,,1.50,meteohub,2013-07-12 10:02:00,
2013-07-12 06:12:00,66.0,65.7,30.09,NNW,337,2.0,5.0,99,0.01,,,1.50,meteohub,2013-07-12 10:12:00,
2013-07-12 06:22:00,66.0,65.7,30.09,East,90,0.0,4.0,99,0.01,,,1.50,meteohub,2013-07-12 10:22:00,
2013-07-12 06:32:00,66.0,65.7,30.09,NNW,337,1.0,4.0,99,0.02,,,1.51,meteohub,2013-07-12 10:32:00,
2013-07-12 06:42:00,66.0,65.7,30.09,NW,315,2.0,2.0,99,0.03,,,1.52,meteohub,2013-07-12 10:42:00,
2013-07-12 06:52:00,66.0,65.7,30.09,NW,315,0.0,3.0,99,0.03,,,1.52,meteohub,2013-07-12 10:52:00,
2013-07-12 07:02:00,66.0,65.7,30.10,NW,315,0.0,2.0,99,0.02,,,1.52,meteohub,2013-07-12 11:02:00,
2013-07-12 07:12:00,66.0,65.7,30.10,NW,315,0.0,2.0,99,0.03,,,1.53,meteohub,2013-07-12 11:12:00,
2013-07-12 07:22:00,66.0,65.7,30.11,North,0,1.0,2.0,99,0.03,,,1.53,meteohub,2013-07-12 11:22:00,
2013-07-12 07:32:00,66.0,65.7,30.10,NW,315,2.0,4.0,99,0.03,,,1.54,meteohub,2013-07-12 11:32:00,
2013-07-12 07:42:00,66.0,65.7,30.11,NW,315,2.0,7.0,99,0.03,,,1.55,meteohub,2013-07-12 11:42:00,
2013-07-12 07:52:00,66.0,65.7,30.11,North,0,2.0,4.0,99,0.04,,,1.56,meteohub,2013-07-12 11:52:00,
2013-07-12 08:02:00,66.0,65.7,30.11,NW,315,2.0,5.0,99,0.05,,,1.57,meteohub,2013-07-12 12:02:00,
2013-07-12 08:12:00,66.0,65.7,30.11,NW,315,0.0,7.0,99,0.04,,,1.57,meteohub,2013-07-12 12:12:00,
2013-07-12 08:22:00,66.0,65.7,30.11,NW,315,1.0,5.0,99,0.05,,,1.58,meteohub,2013-07-12 12:22:00,
2013-07-12 08:32:00,66.0,65.7,30.11,NW,315,1.0,4.0,99,0.05,,,1.59,meteohub,2013-07-12 12:32:00,
2013-07-12 08:42:00,66.0,65.7,30.10,North,0,0.0,2.0,99,0.05,,,1.60,meteohub,2013-07-12 12:42:00,
2013-07-12 08:52:00,66.0,65.7,30.10,North,0,0.0,4.0,99,0.05,,,1.61,meteohub,2013-07-12 12:52:00,
2013-07-12 09:02:00,66.0,65.7,30.09,NE,45,2.0,3.0,99,0.04,,,1.61,meteohub,2013-07-12 13:02:00,
2013-07-12 09:12:00,66.0,65.7,30.09,NE,45,1.0,4.0,99,0.04,,,1.61,meteohub,2013-07-12 13:12:00,
2013-07-12 09:22:00,66.0,65.7,30.09,East,90,1.0,4.0,99,0.03,,,1.61,meteohub,2013-07-12 13:22:00,
2013-07-12 09:32:00,66.0,65.7,30.10,NW,315,0.0,2.0,99,0.03,,,1.62,meteohub,2013-07-12 13:32:00,
2013-07-12 09:42:00,66.0,65.7,30.10,North,0,1.0,4.0,99,0.02,,,1.62,meteohub,2013-07-12 13:42:00,
2013-07-12 09:52:00,66.0,65.7,30.09,NE,45,1.0,4.0,99,0.01,,,1.62,meteohub,2013-07-12 13:52:00,
2013-07-12 10:02:00,66.9,66.6,30.09,East,90,2.0,6.0,99,0.01,,,1.62,meteohub,2013-07-12 14:02:00,
2013-07-12 10:12:00,66.9,66.6,30.09,ESE,112,2.0,6.0,99,0.01,,,1.62,meteohub,2013-07-12 14:12:00,
2013-07-12 10:22:00,66.9,66.6,30.10,NE,45,0.0,5.0,99,0.02,,,1.63,meteohub,2013-07-12 14:22:00,
2013-07-12 10:32:00,66.9,66.6,30.11,NE,45,1.0,2.0,99,0.01,,,1.63,meteohub,2013-07-12 14:32:00,
2013-07-12 10:42:00,66.9,66.6,30.11,NE,45,2.0,6.0,99,0.01,,,1.63,meteohub,2013-07-12 14:42:00,
2013-07-12 10:52:00,68.0,67.6,30.12,NW,315,0.0,6.0,99,0.01,,,1.63,meteohub,2013-07-12 14:52:00,
2013-07-12 11:02:00,68.0,67.6,30.13,NNW,337,2.0,4.0,99,0.01,,,1.63,meteohub,2013-07-12 15:02:00,
2013-07-12 11:12:00,66.9,66.6,30.13,WSW,247,0.0,4.0,99,0.01,,,1.63,meteohub,2013-07-12 15:12:00,
2013-07-12 11:22:00,66.9,66.6,30.14,North,0,0.0,4.0,99,0.00,,,1.63,meteohub,2013-07-12 15:22:00,
2013-07-12 11:32:00,68.0,67.6,30.13,West,270,0.0,4.0,99,0.00,,,1.63,meteohub,2013-07-12 15:32:00,
2013-07-12 11:42:00,68.0,67.6,30.14,West,270,0.0,4.0,99,0.00,,,1.63,meteohub,2013-07-12 15:42:00,
2013-07-12 11:52:00,68.0,67.6,30.15,North,0,1.0,4.0,99,0.00,,,1.63,meteohub,2013-07-12 15:52:00,
2013-07-12 12:02:00,68.0,67.6,30.14,North,0,0.0,2.0,99,0.00,,,1.63,meteohub,2013-07-12 16:02:00,
2013-07-12 12:12:00,68.0,67.6,30.15,NW,315,1.0,4.0,99,0.00,,,1.63,meteohub,2013-07-12 16:12:00,
2013-07-12 12:22:00,68.0,67.6,30.15,North,0,0.0,4.0,99,0.00,,,1.63,meteohub,2013-07-12 16:22:00,
2013-07-12 12:32:00,68.0,67.6,30.14,South,180,1.0,4.0,99,0.00,,,1.63,meteohub,2013-07-12 16:32:00,
2013-07-12 12:42:00,68.0,67.6,30.15,NW,315,1.0,3.0,99,0.00,,,1.63,meteohub,2013-07-12 16:42:00,
2013-07-12 12:52:00,68.0,67.6,30.15,North,0,1.0,2.0,99,0.00,,,1.63,meteohub,2013-07-12 16:52:00,
2013-07-12 13:02:00,68.0,67.6,30.15,North,0,2.0,2.0,99,0.00,,,1.63,meteohub,2013-07-12 17:02:00,
2013-07-12 13:12:00,68.0,67.6,30.15,North,0,0.0,2.0,99,0.00,,,1.63,meteohub,2013-07-12 17:12:00,
2013-07-12 13:22:00,68.0,67.6,30.15,NE,45,1.0,2.0,99,0.00,,,1.63,meteohub,2013-07-12 17:22:00,
2013-07-12 13:32:00,69.1,68.7,30.15,North,0,0.0,2.0,99,0.00,,,1.63,meteohub,2013-07-12 17:32:00,
2013-07-12 13:42:00,68.0,67.6,30.15,NW,315,0.0,2.0,99,0.00,,,1.63,meteohub,2013-07-12 17:42:00,
2013-07-12 13:52:00,69.1,68.7,30.14,NW,315,0.0,3.0,99,0.00,,,1.63,meteohub,2013-07-12 17:52:00,
2013-07-12 14:02:00,69.1,68.7,30.15,ENE,67,0.0,3.0,99,0.00,,,1.63,meteohub,2013-07-12 18:02:00,
2013-07-12 14:12:00,70.0,69.6,30.15,NE,45,0.0,5.0,99,0.00,,,1.63,meteohub,2013-07-12 18:12:00,
2013-07-12 14:22:00,70.0,69.6,30.15,NE,45,1.0,5.0,99,0.00,,,1.63,meteohub,2013-07-12 18:22:00,
2013-07-12 14:32:00,70.0,69.1,30.15,NE,45,1.0,3.0,97,0.00,,,1.63,meteohub,2013-07-12 18:32:00,
2013-07-12 14:42:00,71.1,69.8,30.16,NW,315,1.0,7.0,96,0.00,,,1.63,meteohub,2013-07-12 18:42:00,
2013-07-12 14:52:00,71.1,69.8,30.16,NW,315,1.0,7.0,96,0.00,,,1.63,meteohub,2013-07-12 18:52:00,
2013-07-12 15:02:00,71.1,69.3,30.16,South,180,2.0,6.0,94,0.00,,,1.63,meteohub,2013-07-12 19:02:00,
2013-07-12 15:12:00,71.1,69.6,30.16,NW,315,0.0,6.0,95,0.00,,,1.63,meteohub,2013-07-12 19:12:00,
2013-07-12 15:22:00,72.0,69.8,30.16,NW,315,2.0,6.0,93,0.00,,,1.63,meteohub,2013-07-12 19:22:00,
2013-07-12 15:32:00,72.0,69.4,30.16,NW,315,1.0,6.0,92,0.00,,,1.63,meteohub,2013-07-12 19:32:00,
2013-07-12 15:42:00,72.0,69.3,30.17,NW,315,1.0,3.0,91,0.00,,,1.63,meteohub,2013-07-12 19:42:00,
2013-07-12 15:52:00,72.0,68.9,30.16,NE,45,1.0,4.0,90,0.00,,,1.63,meteohub,2013-07-12 19:52:00,
2013-07-12 16:02:00,72.0,68.2,30.16,NE,45,0.0,4.0,88,0.00,,,1.63,meteohub,2013-07-12 20:02:00,
2013-07-12 16:12:00,72.0,68.5,30.16,NW,315,2.0,3.0,89,0.00,,,1.63,meteohub,2013-07-12 20:12:00,
2013-07-12 16:22:00,72.0,69.3,30.17,NW,315,2.0,3.0,91,0.00,,,1.63,meteohub,2013-07-12 20:22:00,
2013-07-12 16:32:00,72.0,68.9,30.17,NW,315,2.0,3.0,90,0.00,,,1.63,meteohub,2013-07-12 20:32:00,
2013-07-12 16:42:00,72.0,68.5,30.16,NW,315,1.0,4.0,89,0.00,,,1.63,meteohub,2013-07-12 20:42:00,
2013-07-12 16:52:00,72.0,69.3,30.16,NW,315,2.0,5.0,91,0.00,,,1.63,meteohub,2013-07-12 20:52:00,
2013-07-12 17:02:00,71.1,68.0,30.16,ESE,112,1.0,6.0,90,0.00,,,1.63,meteohub,2013-07-12 21:02:00,
2013-07-12 17:12:00,71.1,68.4,30.16,East,90,0.0,4.0,91,0.00,,,1.63,meteohub,2013-07-12 21:12:00,
2013-07-12 17:22:00,71.1,68.5,30.16,West,270,0.0,2.0,92,0.00,,,1.63,meteohub,2013-07-12 21:22:00,
2013-07-12 17:32:00,71.1,68.9,30.16,NW,315,1.0,2.0,93,0.00,,,1.63,meteohub,2013-07-12 21:32:00,
2013-07-12 17:42:00,71.1,69.6,30.16,NNW,337,1.0,2.0,95,0.00,,,1.63,meteohub,2013-07-12 21:42:00,
2013-07-12 17:52:00,70.0,69.4,30.16,NW,315,1.0,2.0,98,0.03,,,1.66,meteohub,2013-07-12 21:52:00,
2013-07-12 18:02:00,69.1,68.7,30.16,East,90,0.0,2.0,99,0.04,,,1.67,meteohub,2013-07-12 22:02:00,
2013-07-12 18:12:00,69.1,68.7,30.15,NW,315,2.0,2.0,99,0.04,,,1.67,meteohub,2013-07-12 22:12:00,
2013-07-12 18:22:00,69.1,68.7,30.15,NW,315,1.0,3.0,99,0.04,,,1.67,meteohub,2013-07-12 22:22:00,
2013-07-12 18:32:00,69.1,68.7,30.15,NW,315,2.0,3.0,99,0.04,,,1.67,meteohub,2013-07-12 22:32:00,
2013-07-12 18:42:00,69.1,68.7,30.15,NW,315,2.0,3.0,99,0.02,,,1.67,meteohub,2013-07-12 22:42:00,
2013-07-12 18:55:00,69.1,68.7,30.15,NW,315,2.0,4.0,99,0.01,,,1.67,meteohub,2013-07-12 22:55:00,
2013-07-12 19:02:00,69.1,68.7,30.15,NNW,337,1.0,5.0,99,0.00,,,1.67,meteohub,2013-07-12 23:02:00,
2013-07-12 19:12:00,69.1,68.7,30.15,NNW,337,2.0,4.0,99,0.00,,,1.67,meteohub,2013-07-12 23:12:00,
2013-07-12 19:22:00,69.1,68.7,30.16,NNW,337,1.0,4.0,99,0.00,,,1.67,meteohub,2013-07-12 23:22:00,
2013-07-12 19:32:00,69.1,68.7,30.16,NW,315,2.0,4.0,99,0.00,,,1.67,meteohub,2013-07-12 23:32:00,
2013-07-12 19:42:00,69.1,68.7,30.16,NW,315,1.0,4.0,99,0.00,,,1.67,meteohub,2013-07-12 23:42:00,
2013-07-12 19:52:00,69.1,68.7,30.16,North,0,2.0,4.0,99,0.00,,,1.67,meteohub,2013-07-12 23:52:00,
2013-07-12 20:02:00,69.1,68.7,30.16,NW,315,2.0,3.0,99,0.00,,,1.67,meteohub,2013-07-13 00:02:00,
2013-07-12 20:12:00,69.1,68.7,30.16,North,0,1.0,4.0,99,0.00,,,1.67,meteohub,2013-07-13 00:12:00,
2013-07-12 20:22:00,69.1,68.7,30.16,NW,315,1.0,3.0,99,0.00,,,1.67,meteohub,2013-07-13 00:22:00,
2013-07-12 20:32:00,69.1,68.7,30.16,NW,315,2.0,5.0,99,0.00,,,1.67,meteohub,2013-07-13 00:32:00,
2013-07-12 20:42:00,69.1,68.7,30.16,NW,315,0.0,4.0,99,0.00,,,1.67,meteohub,2013-07-13 00:42:00,
2013-07-12 20:52:00,69.1,68.7,30.16,NW,315,2.0,4.0,99,0.00,,,1.67,meteohub,2013-07-13 00:52:00,
2013-07-12 21:02:00,69.1,68.7,30.17,NW,315,2.0,4.0,99,0.00,,,1.67,meteohub,2013-07-13 01:02:00,
2013-07-12 21:12:00,69.1,68.7,30.17,NW,315,2.0,4.0,99,0.00,,,1.67,meteohub,2013-07-13 01:12:00,
2013-07-12 21:28:00,69.1,68.7,30.17,NW,315,2.0,4.0,99,0.00,,,1.67,meteohub,2013-07-13 01:28:00,
2013-07-12 21:45:00,69.1,68.7,30.18,NNW,337,1.0,4.0,99,0.00,,,1.67,meteohub,2013-07-13 01:45:00,
2013-07-12 21:56:00,69.1,68.7,30.17,North,0,2.0,4.0,99,0.00,,,1.67,meteohub,2013-07-13 01:56:00,
2013-07-12 22:02:00,69.1,68.7,30.17,NNW,337,2.0,4.0,99,0.00,,,1.67,meteohub,2013-07-13 02:02:00,
2013-07-12 22:12:00,69.1,68.7,30.17,North,0,2.0,4.0,99,0.00,,,1.67,meteohub,2013-07-13 02:12:00,
2013-07-12 22:22:00,69.1,68.7,30.17,North,0,1.0,5.0,99,0.00,,,1.67,meteohub,2013-07-13 02:22:00,
2013-07-12 22:35:00,69.1,68.7,30.17,NW,315,0.0,5.0,99,0.00,,,1.67,meteohub,2013-07-13 02:35:00,
2013-07-12 22:42:00,69.1,68.7,30.18,NNW,337,2.0,3.0,99,0.00,,,1.67,meteohub,2013-07-13 02:42:00,
2013-07-12 22:55:00,69.1,68.7,30.18,NW,315,1.0,4.0,99,0.00,,,1.67,meteohub,2013-07-13 02:55:00,
2013-07-12 23:02:00,69.1,68.7,30.18,North,0,2.0,4.0,99,0.00,,,1.67,meteohub,2013-07-13 03:02:00,
2013-07-12 23:12:00,69.1,68.7,30.18,NW,315,2.0,3.0,99,0.00,,,1.67,meteohub,2013-07-13 03:12:00,
2013-07-12 23:22:00,69.1,68.7,30.18,North,0,2.0,4.0,99,0.00,,,1.67,meteohub,2013-07-13 03:22:00,
2013-07-12 23:32:00,69.1,68.7,30.18,NW,315,1.0,4.0,99,0.00,,,1.67,meteohub,2013-07-13 03:32:00,
2013-07-12 23:42:00,69.1,68.7,30.19,North,0,0.0,4.0,99,0.00,,,1.67,meteohub,2013-07-13 03:42:00,
2013-07-12 23:52:00,69.1,68.7,30.18,North,0,1.0,4.0,99,0.00,,,1.67,meteohub,2013-07-13 03:52:00,